sensor_id;sensor_type;location;lat;lon;timestamp;temperature;humidity
67572;SHT31;54397;47.506;19.158;2023-07-20T00:03:11;25.41;63.81
67572;SHT31;54397;47.506;19.158;2023-07-20T00:06:40;25.34;64.23
67572;SHT31;54397;47.506;19.158;2023-07-20T00:10:02;25.31;64.33
67572;SHT31;54397;47.506;19.158;2023-07-20T00:13:26;25.30;64.40
67572;SHT31;54397;47.506;19.158;2023-07-20T00:16:50;25.24;64.64
67572;SHT31;54397;47.506;19.158;2023-07-20T00:20:17;25.17;64.40
67572;SHT31;54397;47.506;19.158;2023-07-20T00:23:41;25.20;64.79
67572;SHT31;54397;47.506;19.158;2023-07-20T00:27:03;25.24;64.32
67572;SHT31;54397;47.506;19.158;2023-07-20T00:30:27;25.27;64.22
67572;SHT31;54397;47.506;19.158;2023-07-20T00:33:49;25.34;63.73
67572;SHT31;54397;47.506;19.158;2023-07-20T00:37:13;25.28;63.99
67572;SHT31;54397;47.506;19.158;2023-07-20T00:40:39;25.31;63.70
67572;SHT31;54397;47.506;19.158;2023-07-20T00:44:01;25.26;63.87
67572;SHT31;54397;47.506;19.158;2023-07-20T00:47:26;25.30;63.55
67572;SHT31;54397;47.506;19.158;2023-07-20T00:50:48;25.30;63.10
67572;SHT31;54397;47.506;19.158;2023-07-20T00:54:10;25.30;63.12
67572;SHT31;54397;47.506;19.158;2023-07-20T00:57:34;25.26;63.37
67572;SHT31;54397;47.506;19.158;2023-07-20T01:00:58;25.23;63.43
67572;SHT31;54397;47.506;19.158;2023-07-20T01:04:20;25.19;63.74
67572;SHT31;54397;47.506;19.158;2023-07-20T01:07:59;25.07;64.17
67572;SHT31;54397;47.506;19.158;2023-07-20T01:12:07;25.09;63.94
67572;SHT31;54397;47.506;19.158;2023-07-20T01:15:30;24.88;64.53
67572;SHT31;54397;47.506;19.158;2023-07-20T01:18:54;24.96;64.60
67572;SHT31;54397;47.506;19.158;2023-07-20T01:26:27;24.95;64.47
67572;SHT31;54397;47.506;19.158;2023-07-20T01:33:35;24.82;65.42
67572;SHT31;54397;47.506;19.158;2023-07-20T01:36:57;24.80;65.62
67572;SHT31;54397;47.506;19.158;2023-07-20T01:40:19;24.34;66.63
67572;SHT31;54397;47.506;19.158;2023-07-20T01:43:42;23.92;67.37
67572;SHT31;54397;47.506;19.158;2023-07-20T01:47:04;23.87;67.34
67572;SHT31;54397;47.506;19.158;2023-07-20T01:50:26;23.80;68.25
67572;SHT31;54397;47.506;19.158;2023-07-20T01:53:50;23.52;69.11
67572;SHT31;54397;47.506;19.158;2023-07-20T01:57:12;23.55;69.05
67572;SHT31;54397;47.506;19.158;2023-07-20T02:00:36;23.73;68.42
67572;SHT31;54397;47.506;19.158;2023-07-20T02:03:58;23.73;68.85
67572;SHT31;54397;47.506;19.158;2023-07-20T02:07:25;23.59;68.99
67572;SHT31;54397;47.506;19.158;2023-07-20T02:10:49;23.62;69.01
67572;SHT31;54397;47.506;19.158;2023-07-20T02:14:11;23.66;69.21
67572;SHT31;54397;47.506;19.158;2023-07-20T02:17:35;23.66;69.14
67572;SHT31;54397;47.506;19.158;2023-07-20T02:20:58;23.72;69.08
67572;SHT31;54397;47.506;19.158;2023-07-20T02:24:23;23.87;68.67
67572;SHT31;54397;47.506;19.158;2023-07-20T02:27:47;23.92;68.35
67572;SHT31;54397;47.506;19.158;2023-07-20T02:31:11;24.03;68.05
67572;SHT31;54397;47.506;19.158;2023-07-20T02:34:35;24.11;67.81
67572;SHT31;54397;47.506;19.158;2023-07-20T02:37:59;24.17;67.52
67572;SHT31;54397;47.506;19.158;2023-07-20T02:41:21;24.24;67.52
67572;SHT31;54397;47.506;19.158;2023-07-20T02:44:43;24.25;67.63
67572;SHT31;54397;47.506;19.158;2023-07-20T02:48:07;24.18;67.77
67572;SHT31;54397;47.506;19.158;2023-07-20T02:51:31;24.10;68.05
67572;SHT31;54397;47.506;19.158;2023-07-20T02:54:53;24.17;68.27
67572;SHT31;54397;47.506;19.158;2023-07-20T02:58:14;24.21;68.12
67572;SHT31;54397;47.506;19.158;2023-07-20T03:01:36;24.22;68.41
67572;SHT31;54397;47.506;19.158;2023-07-20T03:05:03;24.25;67.92
67572;SHT31;54397;47.506;19.158;2023-07-20T03:08:27;24.25;68.23
67572;SHT31;54397;47.506;19.158;2023-07-20T03:11:51;24.31;68.05
67572;SHT31;54397;47.506;19.158;2023-07-20T03:15:17;24.32;67.97
67572;SHT31;54397;47.506;19.158;2023-07-20T03:18:42;24.27;68.02
67572;SHT31;54397;47.506;19.158;2023-07-20T03:22:07;24.20;68.30
67572;SHT31;54397;47.506;19.158;2023-07-20T03:25:28;24.32;67.76
67572;SHT31;54397;47.506;19.158;2023-07-20T03:28:52;24.35;67.75
67572;SHT31;54397;47.506;19.158;2023-07-20T03:32:14;24.30;68.04
67572;SHT31;54397;47.506;19.158;2023-07-20T03:35:38;24.14;68.10
67572;SHT31;54397;47.506;19.158;2023-07-20T03:39:01;24.07;68.58
67572;SHT31;54397;47.506;19.158;2023-07-20T03:42:24;24.06;69.21
67572;SHT31;54397;47.506;19.158;2023-07-20T03:45:48;24.17;68.42
67572;SHT31;54397;47.506;19.158;2023-07-20T03:49:10;24.24;67.44
67572;SHT31;54397;47.506;19.158;2023-07-20T03:52:31;24.28;67.22
67572;SHT31;54397;47.506;19.158;2023-07-20T03:55:55;24.30;67.01
67572;SHT31;54397;47.506;19.158;2023-07-20T03:59:20;24.25;67.39
67572;SHT31;54397;47.506;19.158;2023-07-20T04:02:42;24.24;67.26
67572;SHT31;54397;47.506;19.158;2023-07-20T04:06:04;24.32;66.53
67572;SHT31;54397;47.506;19.158;2023-07-20T04:09:27;24.35;65.50
67572;SHT31;54397;47.506;19.158;2023-07-20T04:12:49;24.38;65.12
67572;SHT31;54397;47.506;19.158;2023-07-20T04:16:14;24.42;64.47
67572;SHT31;54397;47.506;19.158;2023-07-20T04:19:36;24.47;63.85
67572;SHT31;54397;47.506;19.158;2023-07-20T04:22:57;24.55;62.96
67572;SHT31;54397;47.506;19.158;2023-07-20T04:26:21;24.59;62.08
67572;SHT31;54397;47.506;19.158;2023-07-20T04:29:43;24.61;60.57
67572;SHT31;54397;47.506;19.158;2023-07-20T04:33:05;24.71;60.53
67572;SHT31;54397;47.506;19.158;2023-07-20T04:36:31;24.78;60.43
67572;SHT31;54397;47.506;19.158;2023-07-20T04:39:55;24.80;60.20
67572;SHT31;54397;47.506;19.158;2023-07-20T04:43:17;24.85;59.75
67572;SHT31;54397;47.506;19.158;2023-07-20T04:46:41;24.93;59.76
67572;SHT31;54397;47.506;19.158;2023-07-20T04:50:07;24.97;59.05
67572;SHT31;54397;47.506;19.158;2023-07-20T04:53:34;25.05;59.48
67572;SHT31;54397;47.506;19.158;2023-07-20T04:56:56;25.17;59.37
67572;SHT31;54397;47.506;19.158;2023-07-20T05:00:18;25.26;58.72
67572;SHT31;54397;47.506;19.158;2023-07-20T05:03:40;25.27;58.22
67572;SHT31;54397;47.506;19.158;2023-07-20T05:07:02;25.20;57.18
67572;SHT31;54397;47.506;19.158;2023-07-20T05:10:28;25.37;58.37
67572;SHT31;54397;47.506;19.158;2023-07-20T05:13:53;25.50;57.09
67572;SHT31;54397;47.506;19.158;2023-07-20T05:17:15;25.58;56.73
67572;SHT31;54397;47.506;19.158;2023-07-20T05:20:37;25.62;57.30
67572;SHT31;54397;47.506;19.158;2023-07-20T05:23:59;25.70;57.36
67572;SHT31;54397;47.506;19.158;2023-07-20T05:27:20;25.75;57.52
67572;SHT31;54397;47.506;19.158;2023-07-20T05:30:45;25.89;57.26
67572;SHT31;54397;47.506;19.158;2023-07-20T05:34:06;26.03;56.32
67572;SHT31;54397;47.506;19.158;2023-07-20T05:37:28;26.08;55.27
67572;SHT31;54397;47.506;19.158;2023-07-20T05:40:50;26.22;54.82
67572;SHT31;54397;47.506;19.158;2023-07-20T05:44:12;26.28;54.43
67572;SHT31;54397;47.506;19.158;2023-07-20T05:47:34;25.99;53.81
67572;SHT31;54397;47.506;19.158;2023-07-20T05:50:58;26.13;54.98
67572;SHT31;54397;47.506;19.158;2023-07-20T05:54:19;26.33;53.75
67572;SHT31;54397;47.506;19.158;2023-07-20T05:57:41;26.54;52.77
67572;SHT31;54397;47.506;19.158;2023-07-20T06:01:04;26.71;51.22
67572;SHT31;54397;47.506;19.158;2023-07-20T06:04:29;26.98;51.32
67572;SHT31;54397;47.506;19.158;2023-07-20T06:07:51;26.84;50.32
67572;SHT31;54397;47.506;19.158;2023-07-20T06:11:12;26.97;50.55
67572;SHT31;54397;47.506;19.158;2023-07-20T06:14:34;26.92;50.96
67572;SHT31;54397;47.506;19.158;2023-07-20T06:17:58;26.63;50.90
67572;SHT31;54397;47.506;19.158;2023-07-20T06:21:20;26.67;51.40
67572;SHT31;54397;47.506;19.158;2023-07-20T06:24:42;26.39;52.52
67572;SHT31;54397;47.506;19.158;2023-07-20T06:28:06;26.81;52.79
67572;SHT31;54397;47.506;19.158;2023-07-20T06:31:28;26.81;51.72
67572;SHT31;54397;47.506;19.158;2023-07-20T06:34:52;27.33;51.84
67572;SHT31;54397;47.506;19.158;2023-07-20T06:38:13;27.26;49.54
67572;SHT31;54397;47.506;19.158;2023-07-20T06:41:43;27.32;49.07
67572;SHT31;54397;47.506;19.158;2023-07-20T06:45:05;27.67;49.54
67572;SHT31;54397;47.506;19.158;2023-07-20T06:48:27;27.19;49.11
67572;SHT31;54397;47.506;19.158;2023-07-20T06:51:48;26.99;49.92
67572;SHT31;54397;47.506;19.158;2023-07-20T06:55:10;27.64;49.60
67572;SHT31;54397;47.506;19.158;2023-07-20T06:58:34;27.02;49.80
67572;SHT31;54397;47.506;19.158;2023-07-20T07:01:56;27.19;50.47
67572;SHT31;54397;47.506;19.158;2023-07-20T07:05:20;27.29;50.09
67572;SHT31;54397;47.506;19.158;2023-07-20T07:08:42;27.33;49.59
67572;SHT31;54397;47.506;19.158;2023-07-20T07:12:06;27.71;47.98
67572;SHT31;54397;47.506;19.158;2023-07-20T07:15:28;27.79;49.16
67572;SHT31;54397;47.506;19.158;2023-07-20T07:18:52;28.07;47.53
67572;SHT31;54397;47.506;19.158;2023-07-20T07:22:23;28.29;47.56
67572;SHT31;54397;47.506;19.158;2023-07-20T07:25:45;27.86;47.38
67572;SHT31;54397;47.506;19.158;2023-07-20T07:29:07;27.97;47.44
67572;SHT31;54397;47.506;19.158;2023-07-20T07:32:29;28.27;47.39
67572;SHT31;54397;47.506;19.158;2023-07-20T07:35:53;28.39;46.16
67572;SHT31;54397;47.506;19.158;2023-07-20T07:39:15;28.58;45.91
67572;SHT31;54397;47.506;19.158;2023-07-20T07:42:42;28.08;45.82
67572;SHT31;54397;47.506;19.158;2023-07-20T07:46:06;28.08;47.03
67572;SHT31;54397;47.506;19.158;2023-07-20T07:49:27;28.69;45.80
67572;SHT31;54397;47.506;19.158;2023-07-20T07:52:55;28.53;45.59
67572;SHT31;54397;47.506;19.158;2023-07-20T07:56:19;28.92;45.56
67572;SHT31;54397;47.506;19.158;2023-07-20T07:59:46;28.75;43.99
67572;SHT31;54397;47.506;19.158;2023-07-20T08:03:08;29.13;44.05
67572;SHT31;54397;47.506;19.158;2023-07-20T08:06:30;29.20;43.77
67572;SHT31;54397;47.506;19.158;2023-07-20T08:09:55;29.59;43.30
67572;SHT31;54397;47.506;19.158;2023-07-20T08:13:17;30.07;40.76
67572;SHT31;54397;47.506;19.158;2023-07-20T08:16:38;29.80;39.69
67572;SHT31;54397;47.506;19.158;2023-07-20T08:20:01;29.68;39.48
67572;SHT31;54397;47.506;19.158;2023-07-20T08:23:23;29.23;40.73
67572;SHT31;54397;47.506;19.158;2023-07-20T08:26:47;28.94;41.64
67572;SHT31;54397;47.506;19.158;2023-07-20T08:30:12;28.97;40.89
67572;SHT31;54397;47.506;19.158;2023-07-20T08:33:39;29.03;40.42
67572;SHT31;54397;47.506;19.158;2023-07-20T08:37:01;29.25;40.86
67572;SHT31;54397;47.506;19.158;2023-07-20T08:40:22;28.97;41.50
67572;SHT31;54397;47.506;19.158;2023-07-20T08:43:47;29.10;41.51
67572;SHT31;54397;47.506;19.158;2023-07-20T08:47:10;28.96;41.17
67572;SHT31;54397;47.506;19.158;2023-07-20T08:50:36;29.08;41.09
67572;SHT31;54397;47.506;19.158;2023-07-20T08:53:58;29.42;40.60
67572;SHT31;54397;47.506;19.158;2023-07-20T08:57:23;29.69;40.70
67572;SHT31;54397;47.506;19.158;2023-07-20T09:00:47;29.83;39.90
67572;SHT31;54397;47.506;19.158;2023-07-20T09:04:12;29.27;39.95
67572;SHT31;54397;47.506;19.158;2023-07-20T09:07:36;29.96;39.43
67572;SHT31;54397;47.506;19.158;2023-07-20T09:11:00;30.16;37.96
67572;SHT31;54397;47.506;19.158;2023-07-20T09:14:23;30.54;38.60
67572;SHT31;54397;47.506;19.158;2023-07-20T09:17:48;30.43;36.97
67572;SHT31;54397;47.506;19.158;2023-07-20T09:21:18;30.85;37.60
67572;SHT31;54397;47.506;19.158;2023-07-20T09:24:40;31.02;36.31
67572;SHT31;54397;47.506;19.158;2023-07-20T09:28:05;30.94;36.97
67572;SHT31;54397;47.506;19.158;2023-07-20T09:31:27;30.99;37.64
67572;SHT31;54397;47.506;19.158;2023-07-20T09:35:00;30.94;37.03
67572;SHT31;54397;47.506;19.158;2023-07-20T09:38:27;30.82;37.69
67572;SHT31;54397;47.506;19.158;2023-07-20T09:42:14;30.40;38.16
67572;SHT31;54397;47.506;19.158;2023-07-20T09:45:40;30.71;37.84
67572;SHT31;54397;47.506;19.158;2023-07-20T09:49:11;31.19;37.75
67572;SHT31;54397;47.506;19.158;2023-07-20T09:52:38;31.71;36.76
67572;SHT31;54397;47.506;19.158;2023-07-20T09:56:04;31.73;36.33
67572;SHT31;54397;47.506;19.158;2023-07-20T09:59:26;31.50;37.17
67572;SHT31;54397;47.506;19.158;2023-07-20T10:02:51;31.37;36.74
67572;SHT31;54397;47.506;19.158;2023-07-20T10:06:23;30.96;37.02
67572;SHT31;54397;47.506;19.158;2023-07-20T10:09:48;31.21;37.57
67572;SHT31;54397;47.506;19.158;2023-07-20T10:13:18;30.82;37.64
67572;SHT31;54397;47.506;19.158;2023-07-20T10:16:43;30.86;37.35
67572;SHT31;54397;47.506;19.158;2023-07-20T10:20:11;31.08;38.23
67572;SHT31;54397;47.506;19.158;2023-07-20T10:23:38;31.19;37.63
67572;SHT31;54397;47.506;19.158;2023-07-20T10:27:06;30.68;38.02
67572;SHT31;54397;47.506;19.158;2023-07-20T10:30:30;30.48;39.03
67572;SHT31;54397;47.506;19.158;2023-07-20T10:33:56;30.34;39.27
67572;SHT31;54397;47.506;19.158;2023-07-20T10:37:47;30.72;40.18
67572;SHT31;54397;47.506;19.158;2023-07-20T10:41:47;31.47;39.13
67572;SHT31;54397;47.506;19.158;2023-07-20T10:45:09;31.13;36.97
67572;SHT31;54397;47.506;19.158;2023-07-20T10:48:30;30.58;37.58
67572;SHT31;54397;47.506;19.158;2023-07-20T10:51:59;30.96;37.87
67572;SHT31;54397;47.506;19.158;2023-07-20T10:55:21;30.67;37.43
67572;SHT31;54397;47.506;19.158;2023-07-20T10:58:45;30.06;36.75
67572;SHT31;54397;47.506;19.158;2023-07-20T11:02:09;29.92;36.56
67572;SHT31;54397;47.506;19.158;2023-07-20T11:05:39;29.82;37.24
67572;SHT31;54397;47.506;19.158;2023-07-20T11:09:12;29.92;37.36
67572;SHT31;54397;47.506;19.158;2023-07-20T11:12:37;29.54;36.68
67572;SHT31;54397;47.506;19.158;2023-07-20T11:16:03;29.47;37.97
67572;SHT31;54397;47.506;19.158;2023-07-20T11:19:26;29.72;38.05
67572;SHT31;54397;47.506;19.158;2023-07-20T11:22:53;29.93;37.91
67572;SHT31;54397;47.506;19.158;2023-07-20T11:26:19;30.21;37.56
67572;SHT31;54397;47.506;19.158;2023-07-20T11:29:47;30.99;37.33
67572;SHT31;54397;47.506;19.158;2023-07-20T11:33:11;31.25;35.96
67572;SHT31;54397;47.506;19.158;2023-07-20T11:36:35;31.34;37.62
67572;SHT31;54397;47.506;19.158;2023-07-20T11:40:00;31.30;35.92
67572;SHT31;54397;47.506;19.158;2023-07-20T11:43:23;31.29;37.14
67572;SHT31;54397;47.506;19.158;2023-07-20T11:46:45;31.34;36.19
67572;SHT31;54397;47.506;19.158;2023-07-20T11:50:13;31.18;35.38
67572;SHT31;54397;47.506;19.158;2023-07-20T11:53:36;31.25;36.60
67572;SHT31;54397;47.506;19.158;2023-07-20T11:57:01;31.12;35.21
67572;SHT31;54397;47.506;19.158;2023-07-20T12:00:24;30.94;34.18
67572;SHT31;54397;47.506;19.158;2023-07-20T12:03:48;30.75;34.73
67572;SHT31;54397;47.506;19.158;2023-07-20T12:07:11;30.54;35.70
67572;SHT31;54397;47.506;19.158;2023-07-20T12:10:41;30.98;35.63
67572;SHT31;54397;47.506;19.158;2023-07-20T12:14:09;31.23;36.72
67572;SHT31;54397;47.506;19.158;2023-07-20T12:17:42;31.27;35.27
67572;SHT31;54397;47.506;19.158;2023-07-20T12:21:05;31.30;35.30
67572;SHT31;54397;47.506;19.158;2023-07-20T12:24:30;30.95;34.06
67572;SHT31;54397;47.506;19.158;2023-07-20T12:27:54;30.88;36.74
67572;SHT31;54397;47.506;19.158;2023-07-20T12:31:21;30.89;35.50
67572;SHT31;54397;47.506;19.158;2023-07-20T12:34:45;31.09;34.84
67572;SHT31;54397;47.506;19.158;2023-07-20T12:38:07;31.05;35.13
67572;SHT31;54397;47.506;19.158;2023-07-20T12:41:33;31.25;32.38
67572;SHT31;54397;47.506;19.158;2023-07-20T12:44:55;31.47;33.22
67572;SHT31;54397;47.506;19.158;2023-07-20T12:48:17;31.54;31.50
67572;SHT31;54397;47.506;19.158;2023-07-20T12:51:38;31.39;31.74
67572;SHT31;54397;47.506;19.158;2023-07-20T12:55:00;31.03;31.06
67572;SHT31;54397;47.506;19.158;2023-07-20T12:58:22;31.13;31.80
67572;SHT31;54397;47.506;19.158;2023-07-20T13:01:45;30.91;31.93
67572;SHT31;54397;47.506;19.158;2023-07-20T13:05:07;30.72;32.31
67572;SHT31;54397;47.506;19.158;2023-07-20T13:08:29;30.61;35.19
67572;SHT31;54397;47.506;19.158;2023-07-20T13:11:53;30.76;35.42
67572;SHT31;54397;47.506;19.158;2023-07-20T13:15:18;30.79;33.45
67572;SHT31;54397;47.506;19.158;2023-07-20T13:18:42;30.76;33.42
67572;SHT31;54397;47.506;19.158;2023-07-20T13:22:04;30.68;33.25
67572;SHT31;54397;47.506;19.158;2023-07-20T13:25:33;30.91;32.84
67572;SHT31;54397;47.506;19.158;2023-07-20T13:28:57;30.99;32.65
67572;SHT31;54397;47.506;19.158;2023-07-20T13:32:19;31.12;32.85
67572;SHT31;54397;47.506;19.158;2023-07-20T13:35:41;31.19;32.52
67572;SHT31;54397;47.506;19.158;2023-07-20T13:39:06;31.40;32.48
67572;SHT31;54397;47.506;19.158;2023-07-20T13:42:27;31.16;32.04
67572;SHT31;54397;47.506;19.158;2023-07-20T13:45:49;31.08;32.31
67572;SHT31;54397;47.506;19.158;2023-07-20T13:49:11;30.99;32.68
67572;SHT31;54397;47.506;19.158;2023-07-20T13:52:47;30.78;32.87
67572;SHT31;54397;47.506;19.158;2023-07-20T13:56:09;30.57;33.38
67572;SHT31;54397;47.506;19.158;2023-07-20T13:59:34;30.30;33.52
67572;SHT31;54397;47.506;19.158;2023-07-20T14:02:58;30.28;34.19
67572;SHT31;54397;47.506;19.158;2023-07-20T14:06:22;30.51;33.19
67572;SHT31;54397;47.506;19.158;2023-07-20T14:09:53;30.71;32.83
67572;SHT31;54397;47.506;19.158;2023-07-20T14:13:20;30.75;34.02
67572;SHT31;54397;47.506;19.158;2023-07-20T14:16:54;30.76;33.69
67572;SHT31;54397;47.506;19.158;2023-07-20T14:20:17;30.99;33.43
67572;SHT31;54397;47.506;19.158;2023-07-20T14:23:48;30.88;32.78
67572;SHT31;54397;47.506;19.158;2023-07-20T14:27:14;30.75;33.61
67572;SHT31;54397;47.506;19.158;2023-07-20T14:30:35;30.82;33.20
67572;SHT31;54397;47.506;19.158;2023-07-20T14:33:57;30.84;33.52
67572;SHT31;54397;47.506;19.158;2023-07-20T14:37:20;30.78;34.01
67572;SHT31;54397;47.506;19.158;2023-07-20T14:40:42;30.79;33.93
67572;SHT31;54397;47.506;19.158;2023-07-20T14:44:04;30.99;34.10
67572;SHT31;54397;47.506;19.158;2023-07-20T14:47:26;30.98;33.76
67572;SHT31;54397;47.506;19.158;2023-07-20T14:50:48;30.71;34.26
67572;SHT31;54397;47.506;19.158;2023-07-20T14:54:14;30.69;33.49
67572;SHT31;54397;47.506;19.158;2023-07-20T14:57:38;30.65;34.23
67572;SHT31;54397;47.506;19.158;2023-07-20T15:01:00;30.61;34.84
67572;SHT31;54397;47.506;19.158;2023-07-20T15:04:24;30.54;34.19
67572;SHT31;54397;47.506;19.158;2023-07-20T15:07:48;30.43;34.48
67572;SHT31;54397;47.506;19.158;2023-07-20T15:11:14;30.47;34.51
67572;SHT31;54397;47.506;19.158;2023-07-20T15:14:42;30.28;34.58
67572;SHT31;54397;47.506;19.158;2023-07-20T15:18:04;30.26;34.88
67572;SHT31;54397;47.506;19.158;2023-07-20T15:21:26;30.31;34.31
67572;SHT31;54397;47.506;19.158;2023-07-20T15:24:51;30.20;33.41
67572;SHT31;54397;47.506;19.158;2023-07-20T15:28:13;30.06;34.04
67572;SHT31;54397;47.506;19.158;2023-07-20T15:31:35;29.90;34.36
67572;SHT31;54397;47.506;19.158;2023-07-20T15:35:03;29.65;34.88
67572;SHT31;54397;47.506;19.158;2023-07-20T15:38:25;29.72;33.55
67572;SHT31;54397;47.506;19.158;2023-07-20T15:41:47;29.78;32.56
67572;SHT31;54397;47.506;19.158;2023-07-20T15:45:09;29.78;33.28
67572;SHT31;54397;47.506;19.158;2023-07-20T15:48:31;29.80;33.81
67572;SHT31;54397;47.506;19.158;2023-07-20T15:51:54;29.88;34.12
67572;SHT31;54397;47.506;19.158;2023-07-20T15:55:18;30.02;33.99
67572;SHT31;54397;47.506;19.158;2023-07-20T15:58:40;30.00;34.01
67572;SHT31;54397;47.506;19.158;2023-07-20T16:02:07;29.99;34.48
67572;SHT31;54397;47.506;19.158;2023-07-20T16:05:29;29.92;33.86
67572;SHT31;54397;47.506;19.158;2023-07-20T16:08:53;29.69;34.30
67572;SHT31;54397;47.506;19.158;2023-07-20T16:12:17;29.57;35.35
67572;SHT31;54397;47.506;19.158;2023-07-20T16:15:39;29.69;35.14
67572;SHT31;54397;47.506;19.158;2023-07-20T16:19:06;29.54;34.99
67572;SHT31;54397;47.506;19.158;2023-07-20T16:22:28;29.52;35.34
67572;SHT31;54397;47.506;19.158;2023-07-20T16:25:50;29.54;35.49
67572;SHT31;54397;47.506;19.158;2023-07-20T16:29:13;29.47;34.88
67572;SHT31;54397;47.506;19.158;2023-07-20T16:32:40;29.37;35.30
67572;SHT31;54397;47.506;19.158;2023-07-20T16:36:11;29.38;37.88
67572;SHT31;54397;47.506;19.158;2023-07-20T16:39:33;29.37;36.79
67572;SHT31;54397;47.506;19.158;2023-07-20T16:43:07;29.28;36.62
67572;SHT31;54397;47.506;19.158;2023-07-20T16:46:33;29.28;37.07
67572;SHT31;54397;47.506;19.158;2023-07-20T16:49:57;29.08;35.48
67572;SHT31;54397;47.506;19.158;2023-07-20T16:53:19;28.99;36.21
67572;SHT31;54397;47.506;19.158;2023-07-20T16:56:41;29.03;37.17
67572;SHT31;54397;47.506;19.158;2023-07-20T17:00:05;28.94;36.19
67572;SHT31;54397;47.506;19.158;2023-07-20T17:03:34;28.99;36.92
67572;SHT31;54397;47.506;19.158;2023-07-20T17:06:58;28.99;36.97
67572;SHT31;54397;47.506;19.158;2023-07-20T17:10:23;29.02;36.30
67572;SHT31;54397;47.506;19.158;2023-07-20T17:13:47;29.00;36.07
67572;SHT31;54397;47.506;19.158;2023-07-20T17:17:14;28.89;36.95
67572;SHT31;54397;47.506;19.158;2023-07-20T17:20:36;28.89;36.77
67572;SHT31;54397;47.506;19.158;2023-07-20T17:24:01;28.83;36.22
67572;SHT31;54397;47.506;19.158;2023-07-20T17:27:23;28.80;37.22
67572;SHT31;54397;47.506;19.158;2023-07-20T17:30:45;28.77;36.96
67572;SHT31;54397;47.506;19.158;2023-07-20T17:34:09;28.67;37.63
67572;SHT31;54397;47.506;19.158;2023-07-20T17:37:33;28.63;37.79
67572;SHT31;54397;47.506;19.158;2023-07-20T17:40:57;28.45;37.26
67572;SHT31;54397;47.506;19.158;2023-07-20T17:44:19;28.41;38.21
67572;SHT31;54397;47.506;19.158;2023-07-20T17:47:41;28.41;37.75
67572;SHT31;54397;47.506;19.158;2023-07-20T17:51:05;28.44;38.24
67572;SHT31;54397;47.506;19.158;2023-07-20T17:54:28;28.38;38.12
67572;SHT31;54397;47.506;19.158;2023-07-20T17:57:50;28.32;38.26
67572;SHT31;54397;47.506;19.158;2023-07-20T18:01:12;28.14;38.37
67572;SHT31;54397;47.506;19.158;2023-07-20T18:04:36;28.19;38.82
67572;SHT31;54397;47.506;19.158;2023-07-20T18:07:58;28.24;38.51
67572;SHT31;54397;47.506;19.158;2023-07-20T18:11:22;28.17;39.17
67572;SHT31;54397;47.506;19.158;2023-07-20T18:14:44;28.17;39.55
67572;SHT31;54397;47.506;19.158;2023-07-20T18:18:08;28.15;39.39
67572;SHT31;54397;47.506;19.158;2023-07-20T18:21:30;28.19;39.61
67572;SHT31;54397;47.506;19.158;2023-07-20T18:24:55;28.12;39.56
67572;SHT31;54397;47.506;19.158;2023-07-20T18:28:17;28.12;39.19
67572;SHT31;54397;47.506;19.158;2023-07-20T18:31:39;27.98;39.90
67572;SHT31;54397;47.506;19.158;2023-07-20T18:35:01;27.91;40.74
67572;SHT31;54397;47.506;19.158;2023-07-20T18:38:24;28.01;40.37
67572;SHT31;54397;47.506;19.158;2023-07-20T18:41:46;27.94;41.59
67572;SHT31;54397;47.506;19.158;2023-07-20T18:45:08;27.98;41.54
67572;SHT31;54397;47.506;19.158;2023-07-20T18:48:29;27.89;42.40
67572;SHT31;54397;47.506;19.158;2023-07-20T18:51:51;27.84;43.13
67572;SHT31;54397;47.506;19.158;2023-07-20T18:55:15;27.74;43.58
67572;SHT31;54397;47.506;19.158;2023-07-20T18:58:39;27.67;43.71
67572;SHT31;54397;47.506;19.158;2023-07-20T19:02:01;27.57;43.11
67572;SHT31;54397;47.506;19.158;2023-07-20T19:05:24;27.59;43.32
67572;SHT31;54397;47.506;19.158;2023-07-20T19:08:48;27.47;44.02
67572;SHT31;54397;47.506;19.158;2023-07-20T19:12:14;27.41;43.66
67572;SHT31;54397;47.506;19.158;2023-07-20T19:15:36;27.31;43.81
67572;SHT31;54397;47.506;19.158;2023-07-20T19:18:58;27.31;44.40
67572;SHT31;54397;47.506;19.158;2023-07-20T19:22:19;27.28;44.47
67572;SHT31;54397;47.506;19.158;2023-07-20T19:25:41;27.19;43.90
67572;SHT31;54397;47.506;19.158;2023-07-20T19:29:05;27.15;44.00
67572;SHT31;54397;47.506;19.158;2023-07-20T19:32:30;27.04;43.82
67572;SHT31;54397;47.506;19.158;2023-07-20T19:35:51;27.02;44.80
67572;SHT31;54397;47.506;19.158;2023-07-20T19:39:13;27.01;44.68
67572;SHT31;54397;47.506;19.158;2023-07-20T19:42:35;26.98;44.54
67572;SHT31;54397;47.506;19.158;2023-07-20T19:45:59;26.84;44.77
67572;SHT31;54397;47.506;19.158;2023-07-20T19:49:20;26.83;44.45
67572;SHT31;54397;47.506;19.158;2023-07-20T19:52:42;26.80;45.49
67572;SHT31;54397;47.506;19.158;2023-07-20T19:56:24;26.76;45.68
67572;SHT31;54397;47.506;19.158;2023-07-20T19:59:46;26.64;45.59
67572;SHT31;54397;47.506;19.158;2023-07-20T20:03:10;26.57;45.77
67572;SHT31;54397;47.506;19.158;2023-07-20T20:06:39;26.53;46.07
67572;SHT31;54397;47.506;19.158;2023-07-20T20:10:04;26.53;46.83
67572;SHT31;54397;47.506;19.158;2023-07-20T20:13:26;26.51;46.33
67572;SHT31;54397;47.506;19.158;2023-07-20T20:16:49;26.47;46.31
67572;SHT31;54397;47.506;19.158;2023-07-20T20:20:11;26.43;46.50
67572;SHT31;54397;47.506;19.158;2023-07-20T20:23:33;26.39;46.71
67572;SHT31;54397;47.506;19.158;2023-07-20T20:26:58;26.36;46.18
67572;SHT31;54397;47.506;19.158;2023-07-20T20:30:20;26.29;46.98
67572;SHT31;54397;47.506;19.158;2023-07-20T20:33:48;26.22;46.77
67572;SHT31;54397;47.506;19.158;2023-07-20T20:37:11;26.22;47.08
67572;SHT31;54397;47.506;19.158;2023-07-20T20:40:33;26.15;46.89
67572;SHT31;54397;47.506;19.158;2023-07-20T20:43:55;26.10;46.98
67572;SHT31;54397;47.506;19.158;2023-07-20T20:47:19;26.10;47.53
67572;SHT31;54397;47.506;19.158;2023-07-20T20:50:41;26.03;47.53
67572;SHT31;54397;47.506;19.158;2023-07-20T20:54:08;25.95;47.98
67572;SHT31;54397;47.506;19.158;2023-07-20T20:57:31;25.85;48.90
67572;SHT31;54397;47.506;19.158;2023-07-20T21:00:53;25.51;49.89
67572;SHT31;54397;47.506;19.158;2023-07-20T21:04:15;25.31;50.97
67572;SHT31;54397;47.506;19.158;2023-07-20T21:07:38;25.07;52.09
67572;SHT31;54397;47.506;19.158;2023-07-20T21:11:00;25.03;52.80
67572;SHT31;54397;47.506;19.158;2023-07-20T21:14:22;24.90;52.44
67572;SHT31;54397;47.506;19.158;2023-07-20T21:17:46;24.75;52.89